Date,TemperatureHighF,TemperatureAvgF,TemperatureLowF,DewpointHighF,DewpointAvgF,DewpointLowF,HumidityHigh,HumidityAvg,HumidityLow,PressureMaxIn,PressureMinIn,WindSpeedMaxMPH,WindSpeedAvgMPH,GustSpeedMaxMPH,PrecipitationSumIn
2013-12-1,75,65,59,59,52,38,80,63,34,30.18,30.06,4,2,0,0.00
2013-12-2,70,66,59,55,49,41,75,56,41,30.05,29.90,2,1,0,0.00
2013-12-3,62,59,57,56,54,48,91,84,77,29.90,29.75,9,3,0,0.00
2013-12-4,61,56,49,49,43,39,79,63,47,29.95,29.78,10,4,0,0.00
2013-12-5,61,54,47,44,41,39,74,63,50,30.08,29.92,10,4,0,0.00
2013-12-6,60,53,48,45,41,38,72,63,53,30.16,30.08,9,4,0,0.00
2013-12-7,57,52,49,51,44,36,94,74,61,30.11,30.00,6,2,0,0.15
2013-12-8,57,51,45,42,38,29,78,63,48,30.18,30.08,10,3,0,0.00
2013-12-9,60,51,43,35,23,8,65,35,17,30.25,30.15,10,3,0,0.00
2013-12-10,66,57,48,44,34,18,57,42,28,30.23,30.06,6,2,0,0.00
2013-12-11,67,60,54,52,43,33,85,55,37,30.14,30.09,9,2,0,0.02
2013-12-12,64,57,52,56,50,37,94,79,48,30.20,30.11,9,2,0,0.00
2013-12-13,63,55,50,54,52,48,99,89,72,30.20,30.11,8,2,0,0.01
2013-12-14,73,60,51,54,42,23,91,59,22,30.27,30.16,13,3,0,0.00
2013-12-15,77,68,62,51,46,34,67,48,26,30.18,30.04,5,1,0,0.00
2013-12-16,77,71,61,54,42,35,57,36,29,30.10,30.01,4,1,0,0.00
2013-12-17,75,68,62,56,46,35,82,49,28,30.11,29.98,4,1,0,0.00
2013-12-18,68,61,56,59,54,46,94,77,54,29.98,29.85,7,2,0,0.00
2013-12-19,56,53,49,51,48,45,94,85,77,29.86,29.71,7,3,0,0.14
2013-12-20,61,54,47,53,48,44,91,82,74,29.92,29.75,9,4,0,0.00
2013-12-21,61,55,52,53,50,48,87,81,72,30.07,29.90,10,2,0,0.00
2013-12-22,65,57,51,55,51,48,88,80,69,30.23,30.06,6,2,0,0.00
2013-12-23,75,65,55,52,45,39,87,52,30,30.27,30.17,7,2,0,0.00
2013-12-24,71,65,61,58,49,43,83,55,49,30.17,30.06,4,2,0,0.00
2013-12-25,77,69,61,43,32,20,52,26,15,30.16,30.07,4,2,0,0.00
2013-12-26,78,69,62,44,30,19,42,25,12,30.13,30.03,3,1,0,0.00
2013-12-27,71,68,61,45,40,35,50,36,29,30.12,30.02,3,1,0,0.00
2013-12-28,66,60,55,57,46,28,95,64,29,30.03,29.92,9,2,0,0.00
2013-12-29,69,57,51,53,44,25,97,69,21,30.11,29.98,7,2,0,0.00
2013-12-30,71,66,57,42,29,24,45,27,18,30.23,30.14,4,1,0,0.00
2013-12-31,65,59,54,56,52,40,93,80,53,30.17,30.07,5,2,0,0.00